Terminal Aerodrome Forecast
Issued by NWS

Home | Current Version | Previous Version | Text Only | Print | Product List | Glossary On
Versions: 1 2 3 4 5 6 7 8 9 10 11 12 13 14 15 16 17 18
000
FTUS43 KAPX 300500
TAFPLN
TAF
KPLN 300522Z 3006/0106 01008KT 4SM -DZ BR OVC008
      TEMPO 3006/3010 BKN005
     FM301500 04008KT P6SM OVC015
     FM010200 09003KT 5SM BR OVC015=

USA.gov is the U.S. government's official web portal to all federal, state and local government web resources and services.